KENV/ENV METAR and TAF weather

Enter ICAO airport designator
Station Type Date Time Source
KENV METAR 2021/09/28 03:56 UTC NOAA

KENV 280356Z AUTO 24003KT 10SM CLR 18/M03 A2982 RMK AO2 SLP066 T01831033


Station Type Date Time Source
KENV Decoded METAR 2021/09/28 03:56 UTC NOAA

Wendover / Air Force Auxillary Field, UT, United States (KENV) 40-44N 114-02W 1292M
Sep 27, 2021 - 11:56 PM EDT / 2021.09.28 0356 UTC
Wind: from the WSW (240 degrees) at 3 MPH (3 KT):0
Visibility: 10 mile(s):0
Sky conditions: clear
Temperature: 64.9 F (18.3 C)
Dew Point: 26.1 F (-3.3 C)
Relative Humidity: 22%
Pressure (altimeter): 29.82 in. Hg (1009 hPa)
ob: KENV 280356Z AUTO 24003KT 10SM CLR 18/M03 A2982 RMK AO2 SLP066 T01831033
cycle: 4

Station Type Date Time Source
KENV TAF 2021/09/27 18:22 UTC NOAA

TAF KENV 271720Z 2718/2818 VRB04KT 6SM HZ SKC
FM272100 12007KT 6SM HZ SKC
FM280300 32010KT P6SM SCT080 SCT150
FM281500 32018G28KT P6SM SCT060 BKN120

Example: see airport list